createdAt,value
2018-07-16T00:00:22.641Z,12.23
2018-07-16T00:02:51.876Z,12.73
2018-07-16T00:05:20.614Z,12.57
2018-07-16T00:07:49.864Z,11.93
2018-07-16T00:10:18.892Z,12.53
2018-07-16T00:12:47.709Z,11.90
2018-07-16T00:15:16.582Z,12.33
2018-07-16T00:17:46.618Z,12.00
2018-07-16T00:20:15.397Z,12.40
2018-07-16T00:22:44.163Z,13.07
2018-07-16T00:25:12.867Z,12.50
2018-07-16T00:27:41.706Z,12.60
2018-07-16T00:30:10.543Z,12.60
2018-07-16T00:32:39.328Z,12.70
2018-07-16T00:35:08.754Z,13.60
2018-07-16T00:37:37.401Z,13.77
2018-07-16T00:40:06.202Z,11.77
2018-07-16T00:42:35.404Z,12.93
2018-07-16T00:45:04.399Z,13.23
2018-07-16T00:47:33.589Z,12.97
2018-07-16T00:50:02.276Z,13.80
2018-07-16T00:52:31.014Z,13.40
2018-07-16T00:54:59.725Z,13.67
2018-07-16T00:57:29.075Z,14.60
2018-07-16T00:59:57.841Z,13.97
2018-07-16T01:02:27.036Z,13.23
2018-07-16T01:04:55.960Z,13.70
2018-07-16T01:07:25.303Z,13.30
2018-07-16T01:09:54.389Z,14.67
2018-07-16T01:12:23.084Z,14.30
2018-07-16T01:14:52.014Z,13.13
2018-07-16T01:17:23.258Z,13.47
2018-07-16T01:19:51.969Z,13.37
2018-07-16T01:22:20.676Z,14.47
2018-07-16T01:24:49.450Z,13.50
2018-07-16T01:27:18.269Z,14.17
2018-07-16T01:29:46.935Z,14.37
2018-07-16T01:32:15.896Z,14.27
2018-07-16T01:34:46.236Z,13.63
2018-07-16T01:37:15.333Z,13.80
2018-07-16T01:39:45.845Z,14.00
2018-07-16T01:42:14.532Z,14.47
2018-07-16T01:44:43.416Z,13.80
2018-07-16T01:47:12.226Z,14.23
2018-07-16T01:49:40.914Z,13.13
2018-07-16T01:52:09.891Z,15.40
2018-07-16T01:54:38.673Z,13.83
2018-07-16T01:57:07.810Z,14.07
2018-07-16T01:59:36.513Z,14.00
2018-07-16T02:02:05.388Z,14.30
2018-07-16T02:04:34.057Z,13.87
2018-07-16T02:07:02.682Z,14.63
2018-07-16T02:09:31.575Z,14.10
2018-07-16T02:12:00.835Z,14.43
2018-07-16T02:14:29.455Z,14.90
2018-07-16T02:16:58.077Z,14.70
2018-07-16T02:19:26.706Z,15.07
2018-07-16T02:21:55.361Z,14.30
2018-07-16T02:24:23.999Z,14.70
2018-07-16T02:26:52.670Z,14.97
2018-07-16T02:29:21.363Z,15.13
2018-07-16T02:31:49.950Z,14.70
2018-07-16T02:34:18.546Z,15.07
2018-07-16T02:36:47.220Z,14.40
2018-07-16T02:39:15.954Z,13.80
2018-07-16T02:41:45.282Z,14.73
2018-07-16T02:44:13.976Z,14.90
2018-07-16T02:46:42.863Z,16.60
2018-07-16T02:49:11.496Z,15.40
2018-07-16T02:51:40.154Z,14.83
2018-07-16T02:54:08.833Z,14.20
2018-07-16T02:56:37.492Z,14.70
2018-07-16T02:59:06.534Z,15.97
2018-07-16T03:01:35.236Z,15.30
2018-07-16T03:04:03.849Z,15.43
2018-07-16T03:06:33.282Z,15.10
2018-07-16T03:09:01.911Z,15.30
2018-07-16T03:11:30.592Z,14.80
2018-07-16T03:13:59.349Z,16.10
2018-07-16T03:16:28.686Z,15.57
2018-07-16T03:18:57.381Z,15.37
2018-07-16T03:21:26.466Z,16.70
2018-07-16T03:23:55.099Z,14.83
2018-07-16T03:26:23.756Z,15.73
2018-07-16T03:28:52.447Z,15.60
2018-07-16T03:31:21.131Z,16.23
2018-07-16T03:33:49.821Z,15.43
2018-07-16T03:36:18.819Z,14.90
2018-07-16T03:38:47.746Z,15.70
2018-07-16T03:41:17.113Z,16.23
2018-07-16T03:43:45.760Z,15.30
2018-07-16T03:46:14.419Z,15.23
2018-07-16T03:48:43.294Z,15.40
2018-07-16T03:51:11.924Z,15.30
2018-07-16T03:53:40.950Z,14.93
2018-07-16T03:56:09.647Z,16.00
2018-07-16T03:58:38.356Z,16.00
2018-07-16T04:01:07.286Z,16.40
2018-07-16T04:03:35.997Z,15.40
2018-07-16T04:06:05.354Z,15.13
2018-07-16T04:08:34.063Z,15.40
2018-07-16T04:11:02.778Z,16.57
2018-07-16T04:13:31.576Z,16.10
2018-07-16T04:16:00.613Z,16.27
2018-07-16T04:18:29.600Z,17.47
2018-07-16T04:20:58.242Z,16.40
2018-07-16T04:23:27.072Z,15.50
2018-07-16T04:25:55.724Z,16.60
2018-07-16T04:28:24.372Z,16.23
2018-07-16T04:30:53.111Z,17.17
2018-07-16T04:33:21.750Z,16.70
2018-07-16T04:35:50.694Z,15.90
2018-07-16T04:38:19.330Z,17.53
2018-07-16T04:40:48.370Z,16.90
2018-07-16T04:43:17.346Z,16.07
2018-07-16T04:45:46.037Z,16.70
2018-07-16T04:48:14.694Z,15.40
2018-07-16T04:50:43.367Z,15.20
2018-07-16T04:53:12.256Z,16.10
2018-07-16T04:55:40.895Z,17.73
2018-07-16T04:58:09.862Z,16.90
2018-07-16T05:00:38.551Z,17.40
2018-07-16T05:03:07.430Z,18.50
2018-07-16T05:05:36.075Z,16.87
2018-07-16T05:08:04.737Z,16.70
2018-07-16T05:10:33.496Z,15.63
2018-07-16T05:13:02.211Z,15.40
2018-07-16T05:15:31.156Z,15.50
2018-07-16T05:18:00.188Z,16.80
2018-07-16T05:20:28.853Z,16.00
2018-07-16T05:22:57.523Z,16.30
2018-07-16T05:25:26.715Z,16.40
2018-07-16T05:27:55.808Z,16.27
2018-07-16T05:30:24.870Z,16.03
2018-07-16T05:32:53.903Z,15.93
2018-07-16T05:35:23.259Z,14.63
2018-07-16T05:37:51.931Z,15.20
2018-07-16T05:40:20.892Z,14.90
2018-07-16T05:42:50.044Z,15.73
2018-07-16T05:45:20.960Z,16.10
2018-07-16T05:47:50.053Z,16.37
2018-07-16T05:50:18.928Z,14.70
2018-07-16T05:52:47.560Z,14.13
2018-07-16T05:55:16.158Z,14.60
2018-07-16T05:57:45.438Z,16.27
2018-07-16T06:00:14.055Z,14.97
2018-07-16T06:02:42.971Z,15.50
2018-07-16T06:05:11.676Z,15.30
2018-07-16T06:07:40.855Z,15.77
2018-07-16T06:10:09.547Z,16.50
2018-07-16T06:12:38.191Z,16.87
2018-07-16T06:15:06.914Z,15.83
2018-07-16T06:17:36.523Z,16.60
2018-07-16T06:20:06.161Z,16.23
2018-07-16T06:22:34.800Z,20.40
2018-07-16T06:25:03.963Z,16.60
2018-07-16T06:27:32.909Z,15.47
2018-07-16T06:30:01.771Z,16.30
2018-07-16T06:32:31.236Z,16.67
2018-07-16T06:35:00.071Z,14.47
2018-07-16T06:37:29.731Z,15.17
2018-07-16T06:39:58.770Z,14.37
2018-07-16T06:42:27.342Z,14.00
2018-07-16T06:44:56.087Z,13.73
2018-07-16T06:47:24.771Z,13.90
2018-07-16T06:49:53.413Z,13.53
2018-07-16T06:52:22.140Z,14.73
2018-07-16T06:54:51.335Z,15.10
2018-07-16T06:57:20.252Z,13.80
2018-07-16T06:59:48.949Z,13.30
2018-07-16T07:02:18.139Z,13.97
2018-07-16T07:04:46.726Z,15.67
2018-07-16T07:07:15.374Z,15.00
2018-07-16T07:09:44.111Z,15.23
2018-07-16T07:12:12.835Z,14.73
2018-07-16T07:14:41.483Z,15.20
2018-07-16T07:17:10.453Z,14.80
2018-07-16T07:19:39.162Z,15.00
2018-07-16T07:22:08.229Z,13.30
2018-07-16T07:24:37.532Z,14.30
2018-07-16T07:27:06.646Z,14.70
2018-07-16T07:29:35.625Z,14.10
2018-07-16T07:32:04.411Z,15.17
2018-07-16T07:34:33.344Z,14.27
2018-07-16T07:37:02.036Z,14.13
2018-07-16T07:39:30.720Z,13.20
2018-07-16T07:41:59.374Z,14.27
2018-07-16T07:44:28.027Z,14.87
2018-07-16T07:46:57.083Z,13.13
2018-07-16T07:49:25.775Z,12.43
2018-07-16T07:51:54.500Z,13.00
2018-07-16T07:54:23.417Z,12.50
2018-07-16T07:56:52.042Z,12.47
2018-07-16T07:59:20.720Z,11.77
2018-07-16T08:01:49.536Z,13.00
2018-07-16T08:04:19.407Z,12.50
2018-07-16T08:06:53.266Z,13.03
2018-07-16T08:09:21.940Z,12.50
2018-07-16T08:11:50.652Z,12.50
2018-07-16T08:14:19.381Z,14.23
2018-07-16T08:16:48.230Z,12.43
2018-07-16T08:19:17.281Z,13.27
2018-07-16T08:21:46.245Z,12.73
2018-07-16T08:24:16.037Z,13.27
2018-07-16T08:26:45.107Z,12.67
2018-07-16T08:29:14.130Z,12.27
2018-07-16T08:31:43.082Z,12.40
2018-07-16T08:34:12.546Z,12.50
2018-07-16T08:36:41.636Z,12.70
2018-07-16T08:39:10.642Z,11.70
2018-07-16T08:41:39.591Z,11.20
2018-07-16T08:44:08.334Z,11.63
2018-07-16T08:46:37.077Z,12.17
2018-07-16T08:49:05.872Z,12.40
2018-07-16T08:51:34.573Z,10.70
2018-07-16T08:54:03.318Z,11.87
2018-07-16T08:56:32.383Z,12.03
2018-07-16T08:59:01.436Z,11.30
2018-07-16T09:01:30.138Z,11.00
2018-07-16T09:03:59.236Z,10.87
2018-07-16T09:06:27.993Z,10.90
2018-07-16T09:08:56.774Z,10.63
2018-07-16T09:11:25.423Z,11.90
2018-07-16T09:13:54.606Z,11.43
2018-07-16T09:16:23.310Z,11.47
2018-07-16T09:18:52.379Z,11.77
2018-07-16T09:21:21.033Z,10.80
2018-07-16T09:23:50.022Z,10.73
2018-07-16T09:26:18.654Z,11.27
2018-07-16T09:28:47.456Z,10.30
2018-07-16T09:31:16.546Z,10.83
2018-07-16T09:33:45.255Z,11.30
2018-07-16T09:36:13.978Z,10.47
2018-07-16T09:38:42.721Z,11.10
2018-07-16T09:41:11.709Z,11.20
2018-07-16T09:43:40.364Z,11.60
2018-07-16T09:46:09.079Z,10.87
2018-07-16T09:48:38.158Z,11.57
2018-07-16T09:51:07.010Z,11.00
2018-07-16T09:53:35.765Z,11.40
2018-07-16T09:56:04.556Z,11.40
2018-07-16T09:58:33.639Z,11.70
2018-07-16T10:01:07.575Z,10.70
2018-07-16T10:03:36.246Z,12.03
2018-07-16T10:06:05.119Z,11.73
2018-07-16T10:08:33.933Z,11.33
2018-07-16T10:11:03.218Z,10.90
2018-07-16T10:13:31.946Z,11.60
2018-07-16T10:16:00.892Z,11.20
2018-07-16T10:18:29.999Z,11.13
2018-07-16T10:20:58.759Z,11.40
2018-07-16T10:23:27.457Z,11.30
2018-07-16T10:25:56.341Z,11.27
2018-07-16T10:28:30.280Z,10.93
2018-07-16T10:30:58.987Z,11.63
2018-07-16T10:33:27.658Z,11.63
2018-07-16T10:35:56.666Z,10.93
2018-07-16T10:38:25.913Z,10.93
2018-07-16T10:40:54.690Z,11.07
2018-07-16T10:43:23.523Z,11.50
2018-07-16T10:45:52.193Z,11.40
2018-07-16T10:48:20.802Z,10.23
2018-07-16T10:50:49.519Z,11.87
2018-07-16T10:53:18.254Z,11.30
2018-07-16T10:55:46.987Z,10.47
2018-07-16T10:58:15.730Z,10.60
2018-07-16T11:00:44.747Z,10.77
2018-07-16T11:03:13.479Z,10.30
2018-07-16T11:05:42.325Z,10.50
2018-07-16T11:08:11.125Z,10.67
2018-07-16T11:10:40.424Z,11.30
2018-07-16T11:13:09.172Z,10.43
2018-07-16T11:15:37.921Z,10.57
2018-07-16T11:18:06.735Z,13.13
2018-07-16T11:20:35.430Z,10.77
2018-07-16T11:23:04.247Z,10.77
2018-07-16T11:25:32.991Z,10.77
2018-07-16T11:28:01.674Z,10.40
2018-07-16T11:30:30.356Z,10.67
2018-07-16T11:32:59.252Z,10.10
2018-07-16T11:35:27.959Z,10.37
2018-07-16T11:37:56.721Z,10.60
2018-07-16T11:40:25.409Z,9.80
2018-07-16T11:42:54.181Z,10.40
2018-07-16T11:45:23.161Z,10.83
2018-07-16T11:47:51.917Z,9.93
2018-07-16T11:50:20.741Z,14.93
2018-07-16T11:52:49.503Z,9.83
2018-07-16T11:55:18.583Z,10.47
2018-07-16T11:57:47.558Z,10.00
2018-07-16T12:00:16.268Z,11.30
2018-07-16T12:02:45.169Z,11.90
2018-07-16T12:05:14.229Z,10.90
2018-07-16T12:07:43.183Z,10.17
2018-07-16T12:10:12.082Z,10.57
2018-07-16T12:12:42.098Z,10.20
2018-07-16T12:15:11.599Z,9.87
2018-07-16T12:17:41.703Z,10.20
2018-07-16T12:20:10.424Z,9.90
2018-07-16T12:22:39.251Z,9.40
2018-07-16T12:25:07.984Z,9.40
2018-07-16T12:27:36.777Z,9.40
2018-07-16T12:30:05.569Z,9.43
2018-07-16T12:32:34.294Z,8.88
2018-07-16T12:35:03.060Z,9.23
2018-07-16T12:37:32.463Z,8.90
2018-07-16T12:40:01.273Z,8.70
2018-07-16T12:42:29.969Z,9.28
2018-07-16T12:44:58.903Z,8.90
2018-07-16T12:47:27.604Z,9.35
2018-07-16T12:49:56.271Z,8.40
2018-07-16T12:52:24.917Z,8.73
2018-07-16T12:54:53.884Z,8.85
2018-07-16T12:57:22.668Z,8.50
2018-07-16T12:59:51.380Z,8.30
2018-07-16T13:02:20.699Z,8.60
2018-07-16T13:04:49.714Z,8.80
2018-07-16T13:07:18.638Z,8.63
2018-07-16T13:09:47.403Z,9.53
2018-07-16T13:12:16.094Z,8.68
2018-07-16T13:14:44.699Z,8.45
2018-07-16T13:17:14.229Z,8.73
2018-07-16T13:19:43.314Z,8.63
2018-07-16T13:22:12.572Z,8.45
2018-07-16T13:24:41.254Z,8.60
2018-07-16T13:27:10.310Z,8.65
2018-07-16T13:29:39.017Z,8.40
2018-07-16T13:32:07.711Z,8.38
2018-07-16T13:34:36.363Z,7.92
2018-07-16T13:37:05.110Z,8.40
2018-07-16T13:39:34.063Z,8.70
2018-07-16T13:42:02.757Z,8.25
2018-07-16T13:44:31.456Z,8.95
2018-07-16T13:47:00.181Z,8.98
2018-07-16T13:49:29.026Z,15.23
2018-07-16T13:51:57.824Z,13.72
2018-07-16T13:54:26.476Z,9.13
2018-07-16T13:56:55.146Z,9.40
2018-07-16T13:59:23.850Z,9.45
2018-07-16T14:01:53.226Z,8.83
2018-07-16T14:04:22.245Z,8.80
2018-07-16T14:06:51.456Z,9.70
2018-07-16T14:09:20.099Z,9.05
2018-07-16T14:11:48.756Z,8.75
2018-07-16T14:14:17.450Z,8.70
2018-07-16T14:16:46.128Z,9.30
2018-07-16T14:19:14.894Z,9.15
2018-07-16T14:21:43.918Z,9.13
2018-07-16T14:24:12.673Z,9.05
2018-07-16T14:26:41.285Z,9.20
2018-07-16T14:29:10.040Z,9.45
2018-07-16T14:31:39.024Z,9.10
2018-07-16T14:34:07.853Z,8.90
2018-07-16T14:36:37.020Z,9.27
2018-07-16T14:39:06.676Z,9.13
2018-07-16T14:41:35.491Z,8.80
2018-07-16T14:44:04.336Z,9.23
2018-07-16T14:46:33.040Z,9.10
2018-07-16T14:49:02.297Z,9.60
2018-07-16T14:51:31.069Z,9.70
2018-07-16T14:54:00.043Z,9.63
2018-07-16T14:56:29.167Z,10.00
2018-07-16T14:58:57.921Z,9.50
2018-07-16T15:01:26.640Z,9.83
2018-07-16T15:03:55.573Z,9.70
2018-07-16T15:06:24.260Z,10.10
2018-07-16T15:08:53.324Z,9.87
2018-07-16T15:11:22.034Z,10.13
2018-07-16T15:13:51.274Z,10.60
2018-07-16T15:16:20.290Z,10.70
2018-07-16T15:18:48.932Z,10.10
2018-07-16T15:21:17.855Z,11.60
2018-07-16T15:23:46.981Z,11.00
2018-07-16T15:26:15.690Z,11.13
2018-07-16T15:28:44.405Z,13.53
2018-07-16T15:31:13.027Z,12.57
2018-07-16T15:33:41.742Z,11.30
2018-07-16T15:36:10.747Z,10.63
2018-07-16T15:38:39.689Z,10.97
2018-07-16T15:41:08.707Z,11.20
2018-07-16T15:43:38.659Z,10.50
2018-07-16T15:46:07.642Z,10.70
2018-07-16T15:48:36.411Z,10.30
2018-07-16T15:51:05.203Z,10.97
2018-07-16T15:53:34.680Z,11.67
2018-07-16T15:56:03.710Z,11.10
2018-07-16T15:58:32.799Z,11.20
2018-07-16T16:01:01.800Z,10.77
2018-07-16T16:03:30.418Z,11.20
2018-07-16T16:05:59.408Z,10.90
2018-07-16T16:08:31.089Z,11.27
2018-07-16T16:11:00.092Z,10.30
2018-07-16T16:13:28.742Z,11.00
2018-07-16T16:15:57.750Z,11.30
2018-07-16T16:18:26.525Z,11.30
2018-07-16T16:20:55.171Z,11.40
2018-07-16T16:23:23.896Z,10.77
2018-07-16T16:25:52.580Z,11.90
2018-07-16T16:28:21.816Z,10.13
2018-07-16T16:30:50.779Z,10.83
2018-07-16T16:33:19.519Z,11.60
2018-07-16T16:35:48.556Z,11.73
2018-07-16T16:38:17.730Z,13.33
2018-07-16T16:40:47.328Z,12.63
2018-07-16T16:43:16.402Z,11.90
2018-07-16T16:45:45.182Z,12.90
2018-07-16T16:48:15.517Z,12.87
2018-07-16T16:50:44.316Z,13.77
2018-07-16T16:53:13.569Z,12.90
2018-07-16T16:55:42.302Z,11.80
2018-07-16T16:58:11.739Z,11.37
2018-07-16T17:00:41.165Z,11.57
2018-07-16T17:03:09.912Z,11.30
2018-07-16T17:05:38.942Z,11.23
2018-07-16T17:08:08.279Z,11.40
2018-07-16T17:10:37.165Z,10.77
2018-07-16T17:13:12.906Z,11.07
2018-07-16T17:15:45.160Z,11.17
2018-07-16T17:18:14.634Z,11.47
2018-07-16T17:20:49.827Z,10.70
2018-07-16T17:23:18.868Z,11.40
2018-07-16T17:25:48.850Z,10.87
2018-07-16T17:28:17.527Z,11.87
2018-07-16T17:30:46.345Z,12.50
2018-07-16T17:33:15.041Z,17.37
2018-07-16T17:35:47.982Z,11.77
2018-07-16T17:38:16.683Z,10.30
2018-07-16T17:40:46.803Z,10.60
2018-07-16T17:43:17.322Z,10.90
2018-07-16T17:45:48.482Z,10.90
2018-07-16T17:48:19.088Z,11.27
2018-07-16T17:50:52.506Z,10.87
2018-07-16T17:53:21.384Z,10.07
2018-07-16T17:55:53.792Z,10.90
2018-07-16T17:58:22.910Z,10.43
2018-07-16T18:00:54.190Z,11.20
2018-07-16T18:03:27.166Z,11.07
2018-07-16T18:05:56.594Z,11.23
2018-07-16T18:08:25.510Z,10.80
2018-07-16T18:10:54.439Z,11.13
2018-07-16T18:13:23.669Z,10.70
2018-07-16T18:15:52.611Z,10.60
2018-07-16T18:18:21.845Z,10.80
2018-07-16T18:20:50.659Z,10.83
2018-07-16T18:23:19.344Z,10.97
2018-07-16T18:25:48.226Z,11.10
2018-07-16T18:28:17.199Z,10.93
2018-07-16T18:30:45.932Z,12.60
2018-07-16T18:33:15.276Z,12.80
2018-07-16T18:35:43.953Z,11.27
2018-07-16T18:38:13.124Z,13.10
2018-07-16T18:40:42.189Z,10.90
2018-07-16T18:43:10.947Z,11.20
2018-07-16T18:45:39.635Z,11.40
2018-07-16T18:48:08.966Z,12.00
2018-07-16T18:50:37.616Z,11.40
2018-07-16T18:53:06.924Z,11.40
2018-07-16T18:55:35.582Z,11.43
2018-07-16T18:58:04.686Z,10.77
2018-07-16T19:00:33.596Z,11.53
2018-07-16T19:03:02.353Z,11.50
2018-07-16T19:05:31.264Z,11.60
2018-07-16T19:08:00.382Z,11.70
2018-07-16T19:10:29.093Z,11.17
2018-07-16T19:12:58.180Z,11.53
2018-07-16T19:15:28.521Z,11.23
2018-07-16T19:17:58.842Z,11.10
2018-07-16T19:20:27.842Z,11.53
2018-07-16T19:22:57.338Z,11.10
2018-07-16T19:25:26.220Z,11.83
2018-07-16T19:27:55.321Z,12.40
2018-07-16T19:30:24.634Z,11.83
2018-07-16T19:32:55.571Z,12.63
2018-07-16T19:35:25.782Z,12.10
2018-07-16T19:37:56.541Z,11.50
2018-07-16T19:40:25.328Z,11.40
2018-07-16T19:42:54.340Z,12.00
2018-07-16T19:45:23.087Z,11.30
2018-07-16T19:47:52.606Z,12.40
2018-07-16T19:50:21.704Z,11.67
2018-07-16T19:52:50.685Z,12.00
2018-07-16T19:55:19.668Z,11.60
2018-07-16T19:57:48.479Z,11.73
2018-07-16T20:00:17.303Z,10.57
2018-07-16T20:02:46.033Z,18.20
2018-07-16T20:05:15.049Z,17.33
2018-07-16T20:07:43.865Z,12.07
2018-07-16T20:10:13.118Z,11.30
2018-07-16T20:12:41.967Z,11.20
2018-07-16T20:15:10.953Z,11.43
2018-07-16T20:17:41.191Z,12.63
2018-07-16T20:20:10.015Z,25.67
2018-07-16T20:22:40.782Z,13.00
2018-07-16T20:25:10.281Z,10.80
2018-07-16T20:27:39.197Z,11.57
2018-07-16T20:30:10.609Z,10.93
2018-07-16T20:32:39.418Z,11.00
2018-07-16T20:35:08.930Z,11.20
2018-07-16T20:37:37.855Z,11.17
2018-07-16T20:40:06.542Z,10.87
2018-07-16T20:42:35.264Z,11.50
2018-07-16T20:45:04.017Z,11.30
2018-07-16T20:47:34.123Z,11.53
2018-07-16T20:50:02.859Z,11.23
2018-07-16T20:52:32.054Z,11.00
2018-07-16T20:55:01.865Z,10.70
2018-07-16T20:57:30.889Z,11.80
2018-07-16T20:59:59.750Z,12.07
2018-07-16T21:02:28.424Z,11.47
2018-07-16T21:04:57.237Z,11.47
2018-07-16T21:07:25.911Z,12.10
2018-07-16T21:09:54.621Z,14.93
2018-07-16T21:12:23.971Z,13.90
2018-07-16T21:14:52.706Z,11.80
2018-07-16T21:17:21.888Z,11.70
2018-07-16T21:19:50.583Z,11.63
2018-07-16T21:22:19.408Z,12.23
2018-07-16T21:24:48.507Z,12.50
2018-07-16T21:27:17.149Z,12.57
2018-07-16T21:29:46.376Z,11.97
2018-07-16T21:32:15.122Z,12.67
2018-07-16T21:34:44.895Z,12.33
2018-07-16T21:37:13.558Z,12.17
2018-07-16T21:39:42.793Z,12.93
2018-07-16T21:42:11.744Z,13.10
2018-07-16T21:44:41.088Z,13.07
2018-07-16T21:47:10.428Z,13.43
2018-07-16T21:49:39.215Z,12.37
2018-07-16T21:52:07.958Z,13.33
2018-07-16T21:54:36.697Z,13.20
2018-07-16T21:57:05.481Z,12.70
2018-07-16T21:59:34.849Z,12.70
2018-07-16T22:02:03.653Z,12.80
2018-07-16T22:04:32.766Z,13.10
2018-07-16T22:07:01.480Z,12.70
2018-07-16T22:09:30.253Z,13.80
2018-07-16T22:11:59.151Z,13.80
2018-07-16T22:14:28.704Z,13.13
2018-07-16T22:16:57.891Z,12.80
2018-07-16T22:19:26.529Z,12.87
2018-07-16T22:21:55.782Z,12.57
2018-07-16T22:24:24.544Z,12.50
2018-07-16T22:26:53.568Z,13.13
2018-07-16T22:29:22.860Z,13.20
2018-07-16T22:31:51.541Z,13.77
2018-07-16T22:34:20.464Z,12.97
2018-07-16T22:36:55.729Z,13.43
2018-07-16T22:39:24.554Z,13.67
2018-07-16T22:41:53.157Z,14.03
2018-07-16T22:44:21.786Z,14.13
2018-07-16T22:46:50.383Z,13.03
2018-07-16T22:49:19.177Z,12.50
2018-07-16T22:51:48.103Z,12.97
2018-07-16T22:54:16.758Z,12.40
2018-07-16T22:56:45.664Z,13.30
2018-07-16T22:59:14.296Z,13.03
2018-07-16T23:01:43.369Z,13.10
2018-07-16T23:04:12.624Z,12.70
2018-07-16T23:06:41.561Z,14.00
2018-07-16T23:09:10.782Z,13.00
2018-07-16T23:11:39.464Z,12.97
2018-07-16T23:14:08.109Z,12.90
2018-07-16T23:16:37.017Z,12.47
2018-07-16T23:19:06.398Z,13.20
2018-07-16T23:21:35.108Z,13.47
2018-07-16T23:24:03.857Z,12.80
2018-07-16T23:26:33.299Z,13.37
2018-07-16T23:29:01.878Z,14.00
2018-07-16T23:31:30.779Z,13.13
2018-07-16T23:33:59.482Z,12.83
2018-07-16T23:36:28.418Z,13.10
2018-07-16T23:38:57.400Z,13.47
2018-07-16T23:41:26.674Z,13.40
2018-07-16T23:43:55.637Z,13.53
2018-07-16T23:46:24.552Z,13.60
2018-07-16T23:48:53.314Z,12.83
2018-07-16T23:51:21.961Z,12.43
2018-07-16T23:53:50.581Z,12.90
2018-07-16T23:56:19.248Z,13.37
2018-07-16T23:58:47.879Z,13.43
